createdAt,value
2022-09-23T00:01:26.618Z,100
2022-09-23T00:06:28.676Z,100
2022-09-23T00:11:29.889Z,100
2022-09-23T00:16:31.343Z,100
2022-09-23T00:21:33.302Z,100
2022-09-23T00:26:34.837Z,100
2022-09-23T00:31:36.404Z,100
2022-09-23T00:36:38.218Z,100
2022-09-23T00:41:40.074Z,100
2022-09-23T00:46:41.579Z,100
2022-09-23T00:51:43.103Z,100
2022-09-23T00:56:45.172Z,100
2022-09-23T01:01:47.272Z,100
2022-09-23T01:06:49.346Z,100
2022-09-23T01:11:51.027Z,100
2022-09-23T01:16:53.285Z,100
2022-09-23T01:21:54.537Z,100
2022-09-23T01:26:56.200Z,100
2022-09-23T01:31:58.322Z,100
2022-09-23T01:37:00.138Z,100
2022-09-23T01:42:02.290Z,100
2022-09-23T01:47:03.780Z,100
2022-09-23T01:52:05.470Z,100
2022-09-23T01:57:07.458Z,100
2022-09-23T02:02:08.991Z,100
2022-09-23T02:07:10.779Z,100
2022-09-23T02:12:12.522Z,100
2022-09-23T02:17:13.931Z,100
2022-09-23T02:22:16.056Z,100
2022-09-23T02:27:17.529Z,100
2022-09-23T02:32:19.273Z,100
2022-09-23T02:47:24.209Z,100
2022-09-23T03:02:29.417Z,100
2022-09-23T03:07:30.611Z,100
2022-09-23T03:42:49.661Z,100
2022-09-23T03:47:51.754Z,100
2022-09-23T03:52:53.108Z,100
2022-09-23T03:57:54.762Z,100
2022-09-23T04:02:56.284Z,100
2022-09-23T04:07:57.689Z,100
2022-09-23T04:12:58.932Z,100
2022-09-23T04:18:00.674Z,100
2022-09-23T04:23:02.438Z,100
2022-09-23T04:28:03.710Z,100
2022-09-23T04:33:05.764Z,100
2022-09-23T04:38:07.665Z,100
2022-09-23T04:43:12.937Z,100
2022-09-23T04:48:10.916Z,100
2022-09-23T04:53:12.722Z,100
2022-09-23T04:58:23.276Z,100
2022-09-23T05:03:15.689Z,100
2022-09-23T05:08:25.310Z,100
2022-09-23T05:13:19.430Z,100
2022-09-23T05:18:21.154Z,100
2022-09-23T05:23:22.542Z,100
2022-09-23T05:28:23.985Z,100
2022-09-23T05:33:26.113Z,100
2022-09-23T05:38:27.417Z,100
2022-09-23T05:43:29.298Z,100
2022-09-23T05:48:31.023Z,100
2022-09-23T05:53:32.443Z,100
2022-09-23T05:58:34.165Z,100
2022-09-23T06:03:36.185Z,100
2022-09-23T06:08:38.241Z,100
2022-09-23T06:13:39.489Z,100
2022-09-23T06:18:41.207Z,100
2022-09-23T06:23:42.611Z,100
2022-09-23T06:28:44.766Z,100
2022-09-23T06:33:46.263Z,100
2022-09-23T06:38:47.721Z,100
2022-09-23T06:43:49.849Z,100
2022-09-23T06:48:51.308Z,100
2022-09-23T06:53:52.497Z,100
2022-09-23T06:58:53.898Z,100
2022-09-23T07:03:55.263Z,100
2022-09-23T07:08:56.970Z,100
2022-09-23T07:13:59.088Z,100
2022-09-23T07:19:00.778Z,100
2022-09-23T07:24:02.374Z,100
2022-09-23T07:29:04.330Z,100
2022-09-23T07:34:06.367Z,100
2022-09-23T07:39:08.018Z,100
2022-09-23T07:44:09.885Z,100
2022-09-23T07:49:11.366Z,100
2022-09-23T07:54:12.751Z,100
2022-09-23T07:59:14.514Z,100
2022-09-23T08:04:16.681Z,100
2022-09-23T08:09:17.849Z,100
2022-09-23T08:14:19.829Z,100
2022-09-23T08:19:21.765Z,100
2022-09-23T08:24:23.532Z,100
2022-09-23T08:29:25.462Z,100
2022-09-23T08:34:27.568Z,94
2022-09-23T08:39:37.277Z,93
2022-09-23T08:44:30.698Z,93
2022-09-23T08:49:31.930Z,88
2022-09-23T08:54:33.301Z,92
2022-09-23T08:59:34.642Z,84
2022-09-23T09:04:35.933Z,84
2022-09-23T09:09:38.074Z,85
2022-09-23T09:14:39.859Z,84
2022-09-23T09:19:41.464Z,79
2022-09-23T09:24:44.388Z,80
2022-09-23T09:29:45.192Z,77
2022-09-23T09:34:46.471Z,76
2022-09-23T09:39:48.595Z,75
2022-09-23T09:44:50.345Z,73
2022-09-23T09:49:51.840Z,71
2022-09-23T09:54:53.807Z,68
2022-09-23T09:59:55.754Z,71
2022-09-23T10:04:57.838Z,65
2022-09-23T10:10:05.951Z,67
2022-09-23T10:15:00.871Z,63
2022-09-23T10:20:02.648Z,63
2022-09-23T10:25:04.311Z,59
2022-09-23T10:30:06.209Z,63
2022-09-23T10:35:07.878Z,62
2022-09-23T10:40:09.533Z,62
2022-09-23T10:45:11.030Z,59
2022-09-23T10:50:13.210Z,60
2022-09-23T10:55:15.052Z,57
2022-09-23T11:00:16.453Z,57
2022-09-23T11:05:18.368Z,61
2022-09-23T11:15:21.088Z,59
2022-09-23T11:20:23.184Z,56
2022-09-23T11:25:25.085Z,56
2022-09-23T11:30:26.801Z,55
2022-09-23T11:35:28.832Z,55
2022-09-23T11:40:30.601Z,58
2022-09-23T11:45:32.116Z,54
2022-09-23T11:50:33.436Z,54
2022-09-23T11:55:35.359Z,55
2022-09-23T12:00:36.583Z,55
2022-09-23T12:05:38.330Z,56
2022-09-23T12:10:39.615Z,53
2022-09-23T12:15:41.783Z,54
2022-09-23T12:20:43.146Z,56
2022-09-23T12:25:44.259Z,56
2022-09-23T12:30:45.906Z,57
2022-09-23T12:35:47.808Z,53
2022-09-23T12:40:49.615Z,55
2022-09-23T12:45:51.497Z,55
2022-09-23T12:50:52.922Z,53
2022-09-23T12:55:54.535Z,59
2022-09-23T13:00:56.525Z,55
2022-09-23T13:05:58.216Z,54
2022-09-23T13:10:59.673Z,58
2022-09-23T13:16:01.856Z,54
2022-09-23T13:21:03.665Z,54
2022-09-23T13:26:05.540Z,55
2022-09-23T13:31:06.999Z,58
2022-09-23T13:36:08.921Z,56
2022-09-23T13:41:10.945Z,55
2022-09-23T13:46:12.867Z,56
2022-09-23T13:51:14.540Z,55
2022-09-23T13:56:15.740Z,55
2022-09-23T14:01:17.876Z,55
2022-09-23T14:06:19.065Z,56
2022-09-23T14:11:20.476Z,60
2022-09-23T14:16:22.706Z,57
2022-09-23T14:21:23.945Z,57
2022-09-23T14:26:25.673Z,56
2022-09-23T14:31:27.500Z,61
2022-09-23T14:36:28.644Z,60
2022-09-23T14:41:30.668Z,56
2022-09-23T14:46:32.698Z,56
2022-09-23T14:51:34.758Z,61
2022-09-23T14:56:36.108Z,64
2022-09-23T15:01:37.428Z,60
2022-09-23T15:06:38.955Z,60
2022-09-23T15:11:40.985Z,60
2022-09-23T15:16:42.962Z,62
2022-09-23T15:21:44.922Z,61
2022-09-23T15:26:46.524Z,60
2022-09-23T15:31:48.386Z,61
2022-09-23T15:36:49.822Z,63
2022-09-23T15:41:51.166Z,62
2022-09-23T15:46:52.742Z,63
2022-09-23T15:51:54.537Z,60
2022-09-23T15:56:56.197Z,63
2022-09-23T16:01:57.503Z,63
2022-09-23T16:06:59.041Z,63
2022-09-23T16:12:00.332Z,63
2022-09-23T16:17:02.005Z,65
2022-09-23T16:22:04.168Z,66
2022-09-23T16:27:05.950Z,67
2022-09-23T16:32:07.838Z,69
2022-09-23T16:37:09.269Z,71
2022-09-23T16:42:10.492Z,70
2022-09-23T16:47:12.664Z,72
2022-09-23T16:52:14.050Z,73
2022-09-23T16:57:15.285Z,74
2022-09-23T17:02:16.678Z,75
2022-09-23T17:07:18.235Z,76
2022-09-23T17:22:23.894Z,79
2022-09-23T17:37:29.244Z,82
2022-09-23T17:42:30.900Z,83
2022-09-23T17:47:33.552Z,84
2022-09-23T18:12:39.426Z,88
2022-09-23T18:17:41.270Z,90
2022-09-23T18:22:42.605Z,91
2022-09-23T18:27:44.231Z,91
2022-09-23T18:32:45.553Z,91
2022-09-23T18:37:47.573Z,92
2022-09-23T18:42:49.454Z,95
2022-09-23T18:47:50.735Z,97
2022-09-23T18:52:52.734Z,97
2022-09-23T18:57:54.194Z,97
2022-09-23T19:02:56.246Z,100
2022-09-23T19:07:57.896Z,100
2022-09-23T19:12:59.479Z,100
2022-09-23T19:18:01.109Z,100
2022-09-23T19:23:03.015Z,100
2022-09-23T19:28:04.862Z,100
2022-09-23T19:33:06.615Z,100
2022-09-23T19:38:08.200Z,100
2022-09-23T19:43:09.332Z,100
2022-09-23T19:48:11.256Z,100
2022-09-23T19:53:12.703Z,100
2022-09-23T19:58:14.641Z,100
2022-09-23T20:03:16.588Z,100
2022-09-23T20:08:18.768Z,100
2022-09-23T20:13:20.867Z,100
2022-09-23T20:18:22.831Z,100
2022-09-23T20:23:31.118Z,100
2022-09-23T20:28:32.947Z,100
2022-09-23T20:33:34.721Z,100
2022-09-23T20:38:36.365Z,100
2022-09-23T20:43:38.162Z,100
2022-09-23T20:48:39.542Z,100
2022-09-23T20:53:41.101Z,100
2022-09-23T20:58:43.268Z,100
2022-09-23T21:03:45.067Z,100
2022-09-23T21:08:46.595Z,100
2022-09-23T21:13:48.180Z,100
2022-09-23T21:18:50.164Z,100
2022-09-23T21:23:51.991Z,100
2022-09-23T21:28:53.481Z,100
2022-09-23T21:33:55.152Z,100
2022-09-23T21:38:56.946Z,100
2022-09-23T21:43:58.939Z,100
2022-09-23T21:49:00.502Z,100
2022-09-23T21:54:02.406Z,100
2022-09-23T21:59:03.760Z,100
2022-09-23T22:14:09.292Z,100
2022-09-23T22:19:11.221Z,100
2022-09-23T22:24:13.239Z,100
2022-09-23T22:29:14.873Z,100
2022-09-23T22:34:31.186Z,100
2022-09-23T22:39:18.457Z,100
2022-09-23T22:44:20.663Z,100
2022-09-23T22:49:21.927Z,100
2022-09-23T22:54:23.761Z,100
2022-09-23T22:59:25.286Z,100
2022-09-23T23:04:27.251Z,100
2022-09-23T23:09:29.113Z,100
2022-09-23T23:14:31.188Z,100
2022-09-23T23:19:32.400Z,100
2022-09-23T23:24:34.359Z,100
2022-09-23T23:29:36.099Z,100
2022-09-23T23:34:37.799Z,100
2022-09-23T23:39:39.361Z,100
2022-09-23T23:44:41.343Z,100
2022-09-23T23:49:42.712Z,100
2022-09-23T23:54:44.737Z,100
2022-09-23T23:59:46.890Z,100
